SHDSHENANDOAH VALLEY RGNL
METARs for airports near SHD, sorted by distance:
N 0 nm 1201' KSHD 142335Z 24008KT 10SM CLR 33/16 A3003
NW 6 nm 1165' KVBW 142335Z 29004KT 10SM SCT095 33/17 A3000
E 22 nm 640' KCHO 142253Z 16003KT 10SM SCT100 BKN110 34/18 A2997
NE 30 nm 902' KLUA 142335Z 00000KT 10SM 33/17 A2998
E 35 nm 454' KGVE 142335Z 00000KT 10SM SCT095 32/22 A2996
E 40 nm 464' KOMH 142335Z 00000KT 10SM CLR 31/22 A2998
E 46 nm 493' KLKU 142335Z 16004KT 10SM SCT110 30/22 A2999
SW 48 nm 3792' KHSP 142335Z 29008KT 10SM 28/16 A3022
NE 49 nm 703' KFRR 142335Z 20003KT 10SM CLR 32/18 A2997
E 51 nm 315' KCJR 142335Z 00000KT CLR 33/19 A2996
S 58 nm 938' KLYH 142254Z 22006KT 10SM SCT090 34/17 A3002
S 58 nm 415' KFVX 142335Z 20004KT 10SM CLR 31/23 A2998
NW 58 nm 1987' KEKN 142251Z 27007KT 10SM CLR 31/17 A3009
E 59 nm 336' KHWY 142335Z 16003KT 10SM CLR 32/19 A2996
NE 63 nm 726' KOKV 142335Z 18005KT 10SM OVC090 32/18 A2996
E 68 nm 85' KEZF 142335Z 17004KT 10SM CLR 32/22 A2994
E 68 nm 219' KRMN 142335Z 17004KT 10SM CLR 33/17 A2995
NE 70 nm 192' KHEF 142256Z 17007KT 10SM CLR 33/22 A2995
W 75 nm 2301' KLWB 142335Z 33004KT 10SM CLR 30/16 A3015
SW 76 nm 1175' KROA 142254Z 28006KT 10SM SCT100 36/14 A3004
E 76 nm 10' KNYG 142256Z 5SM CLR 34/21 A2995
SE 76 nm 206' KOFP 142254Z 22005KT 10SM CLR 35/21 A2998
NE 78 nm 312' KIAD 142252Z 20008KT 10SM FEW090 FEW250 34/18 A2994
NE 79 nm 389' KJYO 142335Z 22004KT 10SM CLR 34/21 A2996
NE 80 nm 564' KMRB 142253Z 28008KT 10SM SCT110 35/13 A2993
N 81 nm 775' KCBE 142325Z 26011KT 210V270 10SM CLR 34/14 A3002
SE 82 nm 236' KFCI 142256Z 20004KT 10SM CLR 33/23 A2999
SE 84 nm 437' KBKT 142255Z 19004KT 10SM CLR 33/23 A3000
E 85 nm 73' KDAA 142255Z 15005KT 10SM CLR 35/19 A2992
SE 87 nm 167' KRIC 142254Z 20007KT 10SM FEW060 34/22 A2998
NW 87 nm 1223' KCKB 142253Z 28005KT 10SM CLR 33/18 A3002
S 90 nm 503' KCXE 142315Z 00000KT 10SM BKN120 31/25 A3001
SE 92 nm 192' KPTB 142335Z 00000KT 10SM CLR 31/25 A3000
NE 94 nm 14' KDCA 142252Z 21009KT 10SM FEW080 FEW250 36/16 A2993
NW 95 nm 1243' KMGW 142253Z VRB04KT 10SM CLR 33/15 A3002
SW 95 nm 2119' KBCB 142335Z 32009KT 10SM CLR 31/14 A3015
NE 97 nm 538' KGAI 142256Z 20006KT 10SM CLR A2997
E 97 nm 135' KXSA 142335Z 00000KT 10SM CLR 32/25 A2998
NE 99 nm 308' KFDK 142247Z 18005KT 10SM CLR 36/17 A2994
TAFs for airports near SHD, sorted by distance:
E 22 nm 640' KCHO TAF
  AMD KCHO 142008Z 1420/1518 16008G16KT P6SM FEW250
  FM150000 00000KT P6SM FEW250
  FM150500 18005KT P6SM FEW250
  FM151600 26003KT P6SM FEW200
S 58 nm 938' KLYH TAF KLYH 141720Z 1418/1518 26005KT P6SM SCT060
  FM142300 VRB02KT P6SM FEW250
NW 58 nm 1987' KEKN TAF
  AMD KEKN 141918Z 1419/1518 26008G14KT P6SM SCT070
  FM150100 00000KT P6SM SKC
  FM150900 00000KT 3SM BR SCT002
  FM151200 23003KT P6SM SCT120
W 75 nm 2301' KLWB TAF KLWB 141720Z 1418/1518 28006KT P6SM SCT050 BKN070
  FM150000 00000KT P6SM SCT080
  FM151000 00000KT 3SM BR FEW090
  FM151100 VRB02KT 1/4SM FG FEW001
  FM151300 23004KT P6SM SCT250
SW 76 nm 1175' KROA TAF KROA 141720Z 1418/1518 29009G15KT P6SM BKN080
  FM150100 28003KT P6SM FEW250
E 76 nm 10' KNYG TAF KNYG 1321/1421 VRB06KT 9999 SKC QNH3005INS
  FM140600 VRB06KT 9999 SCT200 QNH2995INS LAST NO
  AMDS AFT 1321 NEXT 1509 AUTOMATED SENSOR METWATCH 1321 TIL 1511 T32/1321Z T22/1411Z
NE 78 nm 312' KIAD KIAD 142102Z 1421/1524 23009KT P6SM FEW250
  FM142300 21005KT P6SM FEW250
  FM150300 18004KT P6SM FEW250
  FM151600 26005KT P6SM FEW250
NE 80 nm 564' KMRB KMRB 141727Z 1418/1518 25006KT P6SM FEW250
  FM142300 21005KT P6SM FEW250
  FM150300 17004KT P6SM FEW250
  FM151000 23005KT P6SM FEW200
  FM151400 28004KT P6SM FEW200
E 85 nm 73' KDAA TAF KDAA 121200Z 1212/1318 VRB05KT 9999 VCSH SCT030 BKN060 OVC100 QNH2996INS
  BECMG 1212/1213 03006KT 9000 -SHRA FEW015 BKN030 OVC070 QNH3000INS
  BECMG 1213/1214 04007KT 8000 -SHRA VCTS SCT015CB OVC030 QNH3011INS
  TEMPO 1214/1301 VRB12G20KT 4800 TSRA BR SCT008 OVC015CB
  BECMG 1302/1303 VRB06KT 9000 -RA OVC010 QNH3010INS
  BECMG 1306/1307 VRB05KT 4800 -RA BR OVC008 QNH3011INS
  BECMG 1312/1313 16007KT 8000 -SHRA VCTS SCT009 BKN015CB OVC030 QNH3012INS TX27/1220Z TN24/1310Z
SE 87 nm 167' KRIC KRIC 141722Z 1418/1518 19008KT P6SM SCT060
  FM142300 22005KT P6SM SKC
NW 87 nm 1223' KCKB TAF KCKB 141720Z 1418/1518 26008KT P6SM FEW040
  FM150100 22002KT P6SM VCTS FEW060CB
  FM150900 20006KT P6SM SKC
  FM151600 24008G14KT P6SM FEW120
NE 94 nm 14' KDCA KDCA 142102Z 1421/1524 21008G16KT P6SM VCTS SCT060CB SCT250
  FM142200 08008G16KT P6SM FEW200
  FM150500 17005KT P6SM FEW200
  FM151600 26005KT P6SM FEW200
NW 95 nm 1243' KMGW KMGW 141736Z 1418/1518 24006KT P6SM SCT060
  FM150300 20003KT P6SM BKN100
  FM151600 22009G18KT P6SM SCT100
SW 95 nm 2119' KBCB TAF KBCB 141720Z 1418/1518 29005KT P6SM SCT080
  FM150100 00000KT P6SM FEW250

Shortcut to this page: http://wxbay.com.

Data may contain errors.